Time;durP1;ratioP1;P1;durP2;ratioP2;P2;SDS_P1;SDS_P2;PMS_P1;PMS_P2;Temp;Humidity;BMP_temperature;BMP_pressure;BME280_temperature;BME280_humidity;BME280_pressure;Samples;Min_cycle;Max_cycle;Signal;HPM_P1;HPM_P2
2022/04/14 00:04:55;;;;;;;6.40;5.63;;;14.20;99.90;;;;;;10369378;28;20230;-79
2022/04/14 00:09:59;;;;;;;5.30;4.90;;;14.20;99.90;;;;;;10369098;28;20222;-81
2022/04/14 00:15:02;;;;;;;6.90;5.20;;;14.20;99.90;;;;;;10363340;28;20229;-78
2022/04/14 00:20:07;;;;;;;5.33;4.80;;;14.10;99.90;;;;;;10379538;28;20305;-80
2022/04/14 00:25:11;;;;;;;4.80;4.40;;;14.00;99.90;;;;;;10376189;28;20611;-78
2022/04/14 00:30:13;;;;;;;5.83;5.03;;;14.00;99.90;;;;;;10370339;28;20226;-80
2022/04/14 00:35:16;;;;;;;6.30;5.70;;;14.00;99.90;;;;;;10370008;28;20226;-79
2022/04/14 00:40:19;;;;;;;7.50;5.27;;;14.00;99.90;;;;;;10379498;28;20242;-80
2022/04/14 00:45:21;;;;;;;5.70;5.13;;;14.00;99.90;;;;;;10372023;28;20202;-78
2022/04/14 00:50:23;;;;;;;6.70;6.07;;;14.00;99.90;;;;;;10388090;28;20261;-77
2022/04/14 00:55:27;;;;;;;6.93;5.63;;;13.90;99.90;;;;;;10383049;28;20246;-80
2022/04/14 01:00:29;;;;;;;9.10;6.60;;;13.90;99.90;;;;;;10389437;28;20244;-79
2022/04/14 01:05:33;;;;;;;8.30;6.00;;;13.90;99.90;;;;;;10388231;28;20198;-78
2022/04/14 01:10:40;;;;;;;8.60;6.07;;;13.80;99.90;;;;;;10390460;28;20217;-79
2022/04/14 01:15:42;;;;;;;6.30;5.70;;;13.80;99.90;;;;;;10370859;28;20206;-79
2022/04/14 01:20:45;;;;;;;8.63;6.40;;;13.70;99.90;;;;;;10380753;28;20241;-80
2022/04/14 01:25:48;;;;;;;7.57;6.20;;;13.60;99.90;;;;;;10381204;28;20253;-79
2022/04/14 01:30:50;;;;;;;7.00;5.97;;;13.60;99.90;;;;;;10389706;28;20210;-80
2022/04/14 01:35:53;;;;;;;6.40;5.90;;;13.70;99.90;;;;;;10387170;28;20695;-79
2022/04/14 01:40:56;;;;;;;11.43;6.50;;;13.70;99.90;;;;;;10381220;28;20242;-79
2022/04/14 01:46:00;;;;;;;6.23;5.63;;;13.70;99.90;;;;;;10382403;28;20214;-79
2022/04/14 01:51:02;;;;;;;8.80;5.53;;;13.70;99.90;;;;;;10384252;28;20238;-80
2022/04/14 01:56:06;;;;;;;8.30;5.30;;;13.70;99.90;;;;;;10379282;28;20224;-79
2022/04/14 02:01:09;;;;;;;5.67;5.10;;;13.70;99.90;;;;;;10372398;28;20230;-79
2022/04/14 02:06:11;;;;;;;7.30;4.90;;;13.60;99.90;;;;;;10379205;28;20239;-79
2022/04/14 02:11:14;;;;;;;7.73;4.77;;;13.60;99.90;;;;;;10361847;28;20246;-79
2022/04/14 02:16:16;;;;;;;6.77;5.00;;;13.50;99.90;;;;;;10374342;28;20207;-80
2022/04/14 02:21:18;;;;;;;5.90;5.40;;;13.50;99.90;;;;;;10377200;28;20644;-79
2022/04/14 02:26:22;;;;;;;6.03;5.43;;;13.40;99.90;;;;;;10376076;28;20190;-79
2022/04/14 02:31:24;;;;;;;5.50;5.00;;;13.40;99.90;;;;;;10341975;28;20215;-79
2022/04/14 02:36:26;;;;;;;8.70;6.50;;;13.40;99.90;;;;;;10357462;28;20261;-79
2022/04/14 02:41:30;;;;;;;5.73;4.97;;;13.40;99.90;;;;;;10357607;28;20218;-79
2022/04/14 02:46:32;;;;;;;7.60;5.97;;;13.40;99.90;;;;;;10374987;28;20201;-79
2022/04/14 02:51:34;;;;;;;6.53;4.83;;;13.30;99.90;;;;;;10374897;28;20260;-79
2022/04/14 02:56:37;;;;;;;12.87;6.07;;;13.30;99.90;;;;;;10356727;28;20654;-79
2022/04/14 03:01:40;;;;;;;7.37;5.47;;;13.30;99.90;;;;;;10382966;28;20322;-79
2022/04/14 03:06:42;;;;;;;6.63;5.23;;;13.30;99.90;;;;;;10407247;28;20194;-80
2022/04/14 03:11:45;;;;;;;10.20;5.90;;;13.30;99.90;;;;;;10383565;28;20302;-79
2022/04/14 03:16:47;;;;;;;6.73;5.50;;;13.30;99.90;;;;;;10357044;28;20214;-79
2022/04/14 03:21:50;;;;;;;7.33;6.27;;;13.20;99.90;;;;;;10389116;28;20197;-79
2022/04/14 03:26:53;;;;;;;8.93;5.80;;;13.20;99.90;;;;;;10372147;28;20198;-79
2022/04/14 03:31:55;;;;;;;8.30;7.50;;;13.10;99.90;;;;;;10372834;28;20203;-79
2022/04/14 03:36:58;;;;;;;7.07;6.37;;;13.10;99.90;;;;;;10400708;28;20222;-79
2022/04/14 03:42:02;;;;;;;10.53;7.40;;;13.10;99.90;;;;;;10382260;28;20195;-80
2022/04/14 03:47:05;;;;;;;8.07;6.93;;;13.10;99.90;;;;;;10394760;28;20662;-80
2022/04/14 03:52:08;;;;;;;9.93;8.83;;;13.10;99.90;;;;;;10373288;28;20195;-79
2022/04/14 03:57:11;;;;;;;13.30;9.50;;;13.00;99.90;;;;;;10411712;22;20239;-81
2022/04/14 04:02:14;;;;;;;13.43;8.63;;;13.00;99.90;;;;;;10386331;28;20581;-82
2022/04/14 04:07:16;;;;;;;11.50;10.30;;;13.00;99.90;;;;;;10394091;28;20221;-81
2022/04/14 04:12:21;;;;;;;11.60;10.50;;;13.00;99.90;;;;;;10374490;28;20211;-81
2022/04/14 04:17:23;;;;;;;12.47;10.83;;;13.00;99.90;;;;;;10379570;28;20437;-81
2022/04/14 04:22:26;;;;;;;11.63;9.80;;;13.00;99.90;;;;;;10372389;28;20285;-79
2022/04/14 04:27:29;;;;;;;19.27;12.40;;;13.00;99.90;;;;;;10361746;28;20310;-81
2022/04/14 04:32:33;;;;;;;14.00;12.60;;;13.00;99.90;;;;;;10395738;28;20198;-81
2022/04/14 04:37:36;;;;;;;15.10;13.60;;;13.00;99.90;;;;;;10396577;28;20613;-80
2022/04/14 04:42:39;;;;;;;18.30;15.30;;;13.00;99.90;;;;;;10389793;28;20682;-81
2022/04/14 04:47:41;;;;;;;18.10;16.43;;;13.00;99.90;;;;;;10348689;28;20265;-80
2022/04/14 04:52:45;;;;;;;19.63;17.70;;;13.00;99.90;;;;;;10364756;28;20265;-80
2022/04/14 04:57:49;;;;;;;18.80;16.87;;;13.00;99.90;;;;;;10364072;28;20230;-80
2022/04/14 05:02:51;;;;;;;20.80;16.50;;;13.00;99.90;;;;;;10381944;28;20187;-83
2022/04/14 05:07:53;;;;;;;18.37;16.67;;;13.00;99.90;;;;;;10373819;28;20210;-81
2022/04/14 05:12:57;;;;;;;17.93;16.03;;;13.00;99.90;;;;;;10396320;28;20209;-82
2022/04/14 05:17:59;;;;;;;21.00;17.07;;;13.00;99.90;;;;;;10392128;28;20229;-79
2022/04/14 05:23:01;;;;;;;20.80;17.77;;;13.10;99.90;;;;;;10368888;28;20194;-81
2022/04/14 05:28:05;;;;;;;23.47;18.73;;;13.10;99.90;;;;;;10397201;28;20235;-82
2022/04/14 05:33:10;;;;;;;21.67;19.03;;;13.20;99.90;;;;;;10390446;28;20202;-81
2022/04/14 05:38:12;;;;;;;22.10;19.80;;;13.20;99.90;;;;;;10383817;28;20706;-81
2022/04/14 05:43:19;;;;;;;21.17;19.00;;;13.30;99.90;;;;;;10394606;28;20218;-82
2022/04/14 05:48:22;;;;;;;25.73;19.87;;;13.30;99.90;;;;;;10400196;28;20209;-82
2022/04/14 05:53:26;;;;;;;24.13;21.63;;;13.40;99.90;;;;;;10396289;28;20197;-82
2022/04/14 05:58:30;;;;;;;23.73;20.17;;;13.50;99.90;;;;;;10386277;28;20229;-81
2022/04/14 06:03:32;;;;;;;25.07;22.47;;;13.60;99.90;;;;;;10379537;28;20628;-81
2022/04/14 06:08:34;;;;;;;26.00;23.20;;;13.60;99.90;;;;;;10356509;28;20245;-81
2022/04/14 06:13:38;;;;;;;30.80;26.23;;;13.70;99.90;;;;;;10381001;28;20209;-81
2022/04/14 06:18:40;;;;;;;35.63;29.07;;;13.80;99.90;;;;;;10384280;28;20250;-81
2022/04/14 06:23:42;;;;;;;29.63;26.57;;;13.90;99.90;;;;;;10394389;28;20257;-81
2022/04/14 06:28:47;;;;;;;29.50;26.40;;;14.10;99.90;;;;;;10377770;28;20222;-81
2022/04/14 06:33:49;;;;;;;29.73;26.80;;;14.20;99.90;;;;;;10375520;28;20202;-80
2022/04/14 06:38:51;;;;;;;29.80;26.60;;;14.30;99.90;;;;;;10375458;28;20241;-82
2022/04/14 06:43:54;;;;;;;30.67;27.77;;;14.40;99.90;;;;;;10377419;28;20213;-81
2022/04/14 06:48:57;;;;;;;24.27;21.57;;;14.50;99.90;;;;;;10379302;28;20695;-81
2022/04/14 06:53:59;;;;;;;28.73;25.93;;;14.60;99.90;;;;;;10391825;28;20199;-81
2022/04/14 06:59:11;;;;;;;31.63;26.33;;;14.70;99.90;;;;;;10375493;28;20241;-81
2022/04/14 07:04:13;;;;;;;28.97;25.93;;;14.80;99.90;;;;;;10405396;28;20199;-79
2022/04/14 07:09:15;;;;;;;29.37;26.23;;;14.90;99.90;;;;;;10378502;28;20203;-81
2022/04/14 07:14:19;;;;;;;31.13;25.90;;;15.00;99.90;;;;;;10383194;28;20202;-79
2022/04/14 07:19:21;;;;;;;25.13;22.70;;;15.10;99.90;;;;;;10369706;28;20233;-79
2022/04/14 07:24:23;;;;;;;27.30;24.50;;;15.20;99.90;;;;;;10384061;28;20186;-81
2022/04/14 07:29:27;;;;;;;22.37;20.40;;;15.30;99.90;;;;;;10367598;28;20289;-81
2022/04/14 07:34:29;;;;;;;26.13;23.53;;;15.40;99.90;;;;;;10372180;28;20617;-81
2022/04/14 07:39:31;;;;;;;22.80;20.50;;;15.60;99.90;;;;;;10355313;28;20252;-82
2022/04/14 07:44:34;;;;;;;24.07;21.70;;;15.70;99.90;;;;;;10378961;28;20229;-82
2022/04/14 07:49:37;;;;;;;20.07;18.00;;;15.80;99.90;;;;;;10376675;28;20297;-80
2022/04/14 07:54:39;;;;;;;20.00;18.00;;;16.10;99.90;;;;;;10353993;28;20201;-80
2022/04/14 07:59:42;;;;;;;23.17;20.60;;;16.30;99.90;;;;;;10385343;28;20249;-82
2022/04/14 08:04:44;;;;;;;21.23;19.10;;;16.60;99.90;;;;;;10376108;28;20194;-81
2022/04/14 08:09:47;;;;;;;21.03;18.93;;;16.90;99.90;;;;;;10366549;28;20601;-80
2022/04/14 08:14:50;;;;;;;20.47;18.43;;;17.30;99.90;;;;;;10386440;28;20217;-80
2022/04/14 08:19:52;;;;;;;18.33;16.47;;;17.60;99.90;;;;;;10376389;28;20211;-83
2022/04/14 08:24:54;;;;;;;20.60;17.17;;;17.90;99.90;;;;;;10381016;28;20195;-82
2022/04/14 08:29:58;;;;;;;20.00;17.67;;;18.30;99.90;;;;;;10380297;28;20210;-83
2022/04/14 08:35:00;;;;;;;17.60;15.77;;;18.50;99.90;;;;;;10377630;28;20285;-81
2022/04/14 08:40:03;;;;;;;18.30;15.53;;;18.80;99.90;;;;;;10359131;28;20280;-81
2022/04/14 08:45:09;;;;;;;19.77;17.33;;;19.00;99.90;;;;;;10365239;28;20221;-81
2022/04/14 08:50:13;;;;;;;19.10;14.90;;;19.20;99.90;;;;;;10349136;28;20214;-83
2022/04/14 08:55:15;;;;;;;16.27;14.57;;;19.30;99.90;;;;;;10371989;28;20273;-83
2022/04/14 09:00:20;;;;;;;16.97;15.17;;;19.50;99.90;;;;;;10383530;28;20218;-83
2022/04/14 09:05:22;;;;;;;16.60;15.00;;;19.50;99.90;;;;;;10370457;28;20194;-81
2022/04/14 09:10:24;;;;;;;19.33;16.13;;;19.60;99.90;;;;;;10364654;28;20218;-82
2022/04/14 09:15:28;;;;;;;18.30;15.00;;;19.60;99.90;;;;;;10360980;28;20202;-80
2022/04/14 09:20:34;;;;;;;18.03;12.97;;;19.70;99.90;;;;;;10329714;28;20222;-82
2022/04/14 09:25:36;;;;;;;16.73;13.70;;;19.90;99.90;;;;;;10358817;28;20194;-83
2022/04/14 09:30:41;;;;;;;15.13;13.53;;;20.10;99.90;;;;;;10357025;28;20264;-82
2022/04/14 09:35:43;;;;;;;14.60;13.30;;;20.30;99.90;;;;;;10377365;28;20198;-81
2022/04/14 09:40:48;;;;;;;18.00;15.47;;;20.50;99.90;;;;;;10359413;28;20309;-82
2022/04/14 09:45:52;;;;;;;15.97;14.40;;;20.70;99.90;;;;;;10359024;28;20261;-82
2022/04/14 09:50:54;;;;;;;16.17;14.57;;;20.90;99.90;;;;;;10379541;28;20651;-82
2022/04/14 09:55:58;;;;;;;12.90;11.70;;;21.10;99.60;;;;;;10341131;28;20191;-85
2022/04/14 10:01:02;;;;;;;12.57;11.23;;;21.30;99.30;;;;;;10396688;28;20993;-83
2022/04/14 10:06:06;;;;;;;17.77;14.80;;;21.50;98.90;;;;;;10362686;28;20209;-82
2022/04/14 10:11:09;;;;;;;16.73;14.80;;;21.70;98.30;;;;;;10387213;28;20222;-81
2022/04/14 10:16:14;;;;;;;17.80;15.43;;;21.60;98.20;;;;;;10381355;28;20198;-84
2022/04/14 10:21:16;;;;;;;16.77;15.17;;;21.40;97.60;;;;;;10369881;28;20589;-81
2022/04/14 10:26:20;;;;;;;19.30;17.40;;;21.10;98.30;;;;;;10375623;28;20616;-83
2022/04/14 10:31:25;;;;;;;17.00;15.47;;;20.80;98.50;;;;;;10387700;28;20222;-84
2022/04/14 10:36:29;;;;;;;21.27;16.00;;;20.50;99.00;;;;;;10353213;28;20212;-84
2022/04/14 10:41:34;;;;;;;14.97;13.67;;;20.30;99.40;;;;;;10383448;28;20221;-83
2022/04/14 10:46:41;;;;;;;19.47;17.37;;;20.10;99.80;;;;;;10342402;28;20202;-82
2022/04/14 10:51:44;;;;;;;16.73;15.13;;;20.00;99.20;;;;;;10371510;28;20214;-83
2022/04/14 10:56:49;;;;;;;17.27;15.50;;;19.80;99.60;;;;;;10361914;28;20297;-83
2022/04/14 11:02:04;;;;;;;18.50;16.60;;;19.70;99.40;;;;;;10367126;28;20219;-83
2022/04/14 11:07:12;;;;;;;16.27;14.67;;;19.70;98.90;;;;;;10390840;28;20570;-81
2022/04/14 11:12:16;;;;;;;18.17;15.43;;;19.60;99.60;;;;;;10355904;28;20194;-83
2022/04/14 11:18:00;;;;;;;14.60;13.20;;;19.60;99.50;;;;;;10361022;28;20222;-84
2022/04/14 11:23:07;;;;;;;17.27;14.97;;;19.50;99.50;;;;;;10346012;28;20249;-83
2022/04/14 11:28:34;;;;;;;16.33;13.83;;;19.50;99.50;;;;;;10354234;28;20254;-84
2022/04/14 11:33:38;;;;;;;15.73;12.60;;;19.40;99.00;;;;;;10367146;28;20334;-83
2022/04/14 11:38:59;;;;;;;15.63;14.00;;;19.40;99.20;;;;;;10366751;28;20232;-81
2022/04/14 11:44:02;;;;;;;15.10;13.50;;;19.40;98.40;;;;;;10377116;28;20206;-82
2022/04/14 11:49:05;;;;;;;17.53;15.73;;;19.40;99.50;;;;;;10382049;28;20260;-83
2022/04/14 11:54:11;;;;;;;17.33;13.97;;;19.40;99.80;;;;;;10379330;28;20601;-80
2022/04/14 11:59:19;;;;;;;17.97;16.07;;;19.40;99.90;;;;;;10381798;28;20245;-83
2022/04/14 12:04:30;;;;;;;15.97;14.40;;;19.30;99.90;;;;;;10392178;28;20212;-82
2022/04/14 12:16:22;;;;;;;25.83;16.60;;;19.30;99.90;;;;;;10368158;28;20206;-80
2022/04/14 12:21:27;;;;;;;15.37;14.07;;;19.40;99.90;;;;;;10393776;28;20280;-79
2022/04/14 12:26:35;;;;;;;16.53;15.03;;;19.40;99.90;;;;;;10374014;28;20195;-79
2022/04/14 12:31:48;;;;;;;17.63;15.67;;;19.50;99.90;;;;;;10442280;22;20236;-81
2022/04/14 12:36:53;;;;;;;17.00;15.47;;;19.60;99.90;;;;;;10406994;28;20248;-79
2022/04/14 12:42:24;;;;;;;18.33;16.40;;;19.60;99.90;;;;;;10418919;28;20218;-81
2022/04/14 12:53:10;;;;;;;17.50;15.90;;;19.60;99.90;;;;;;10434823;28;20201;-81
2022/04/14 12:58:29;;;;;;;17.50;15.33;;;19.60;99.90;;;;;;10442551;28;20237;-82
2022/04/14 13:03:51;;;;;;;15.37;13.97;;;19.60;99.90;;;;;;10422306;28;20623;-83
2022/04/14 13:09:04;;;;;;;17.50;15.40;;;19.70;99.90;;;;;;10425474;28;20271;-82
2022/04/14 13:14:54;;;;;;;22.93;17.13;;;19.70;99.90;;;;;;10426091;28;20688;-80
2022/04/14 13:21:02;;;;;;;18.43;16.43;;;19.60;99.90;;;;;;10400682;28;20763;-82
2022/04/14 13:26:16;;;;;;;19.03;17.03;;;19.70;99.90;;;;;;10419662;28;20198;-82
2022/04/14 13:31:19;;;;;;;15.63;14.03;;;19.70;99.90;;;;;;10461416;28;20260;-81
2022/04/14 13:36:47;;;;;;;20.00;18.10;;;19.80;99.90;;;;;;10432102;28;20255;-81
2022/04/14 13:48:25;;;;;;;18.33;16.60;;;19.70;99.90;;;;;;10264853;22;20291;-81
2022/04/14 13:58:56;;;;;;;21.70;19.50;;;19.70;99.90;;;;;;10277119;28;20552;-83
2022/04/14 14:04:00;;;;;;;19.63;17.73;;;19.80;99.90;;;;;;10292403;28;20204;-79
2022/04/14 14:09:02;;;;;;;18.70;17.00;;;19.80;99.90;;;;;;10393857;28;20210;-80
2022/04/14 14:14:05;;;;;;;21.73;19.40;;;19.80;99.90;;;;;;10417844;28;20650;-80
2022/04/14 14:19:08;;;;;;;17.93;16.33;;;19.80;99.90;;;;;;10418295;28;20225;-81
2022/04/14 14:24:11;;;;;;;18.50;16.70;;;19.80;99.90;;;;;;10399276;28;20681;-81
2022/04/14 14:29:15;;;;;;;17.40;15.73;;;19.80;99.90;;;;;;10417801;28;20252;-80
2022/04/14 14:34:21;;;;;;;15.53;14.20;;;19.80;99.90;;;;;;10422167;28;20698;-79
2022/04/14 14:39:26;;;;;;;18.10;16.23;;;19.70;99.90;;;;;;10419380;28;20244;-81
2022/04/14 14:44:28;;;;;;;18.80;16.80;;;19.70;99.90;;;;;;10400665;28;20225;-82
2022/04/14 14:49:32;;;;;;;16.57;14.87;;;19.70;99.90;;;;;;10416504;28;20221;-81
2022/04/14 14:54:35;;;;;;;15.73;14.33;;;19.60;99.90;;;;;;10399523;28;20527;-84
2022/04/14 14:59:37;;;;;;;17.20;15.23;;;19.60;99.90;;;;;;10397322;28;20225;-81
2022/04/14 15:04:41;;;;;;;16.83;15.20;;;19.60;99.90;;;;;;10396265;28;20213;-79
2022/04/14 15:09:44;;;;;;;17.47;15.77;;;19.60;99.90;;;;;;10378585;28;20724;-79
2022/04/14 15:14:46;;;;;;;18.23;16.33;;;19.60;99.90;;;;;;10395048;28;20252;-80
2022/04/14 15:19:49;;;;;;;16.40;14.80;;;19.60;99.90;;;;;;10408981;28;20312;-81
2022/04/14 15:24:51;;;;;;;15.53;13.87;;;19.60;99.90;;;;;;10396374;28;20197;-82
2022/04/14 15:29:54;;;;;;;15.70;14.33;;;19.70;99.90;;;;;;10417035;28;20216;-81
2022/04/14 15:34:57;;;;;;;16.27;14.63;;;19.80;99.90;;;;;;10411999;28;20197;-85
2022/04/14 15:39:59;;;;;;;19.20;17.50;;;19.90;99.90;;;;;;10406713;28;20233;-79
2022/04/14 15:45:01;;;;;;;17.50;15.90;;;19.90;99.90;;;;;;10411160;28;20205;-80
2022/04/14 15:50:07;;;;;;;18.53;16.60;;;19.90;99.90;;;;;;10411202;28;21491;-79
2022/04/14 15:55:10;;;;;;;15.97;14.57;;;19.90;99.90;;;;;;10411896;28;20209;-79
2022/04/14 16:00:15;;;;;;;15.50;13.90;;;19.80;99.90;;;;;;10408637;28;20229;-81
2022/04/14 16:05:19;;;;;;;13.77;12.37;;;19.70;99.90;;;;;;10374420;28;20201;-80
2022/04/14 16:15:55;;;;;;;14.30;13.07;;;19.80;99.90;;;;;;10253383;28;20200;-81
2022/04/14 16:20:59;;;;;;;16.37;13.60;;;19.80;99.90;;;;;;10346641;28;20226;-82
2022/04/14 16:26:01;;;;;;;16.77;14.77;;;19.70;99.90;;;;;;10400284;28;20210;-81
2022/04/14 16:31:03;;;;;;;12.67;11.47;;;19.70;99.90;;;;;;10399989;28;20264;-81
2022/04/14 16:36:07;;;;;;;14.47;13.07;;;19.70;99.90;;;;;;10420144;28;20202;-81
2022/04/14 16:41:10;;;;;;;14.53;13.03;;;19.70;99.90;;;;;;10381112;28;20226;-81
2022/04/14 16:46:13;;;;;;;15.27;13.87;;;19.70;99.90;;;;;;10403149;28;20255;-83
2022/04/14 16:51:16;;;;;;;13.60;12.30;;;19.60;99.90;;;;;;10384861;28;20252;-82
2022/04/14 16:56:18;;;;;;;12.73;11.57;;;19.60;99.90;;;;;;10397391;28;20209;-83
2022/04/14 17:01:20;;;;;;;14.23;12.73;;;19.60;99.90;;;;;;10382380;28;20232;-81
2022/04/14 17:06:24;;;;;;;14.10;12.60;;;19.60;99.90;;;;;;10394416;28;20297;-81
2022/04/14 17:11:26;;;;;;;13.77;12.47;;;19.50;99.90;;;;;;10396947;28;20275;-80
2022/04/14 17:16:29;;;;;;;13.13;11.83;;;19.40;99.90;;;;;;10383137;28;20626;-81
2022/04/14 17:26:54;;;;;;;11.73;10.53;;;19.30;99.90;;;;;;10416883;28;20210;-80
2022/04/14 17:31:57;;;;;;;9.80;8.90;;;19.20;99.90;;;;;;10420367;28;20256;-80
2022/04/14 17:37:03;;;;;;;9.87;9.00;;;19.10;99.90;;;;;;10416773;28;20198;-80
2022/04/14 17:42:06;;;;;;;8.00;7.30;;;19.00;99.90;;;;;;10399940;28;20682;-80
2022/04/14 17:47:08;;;;;;;7.93;7.20;;;18.90;99.90;;;;;;10394645;28;20228;-80
2022/04/14 17:52:18;;;;;;;6.30;5.70;;;18.90;99.90;;;;;;10417050;28;20186;-80
2022/04/14 17:57:20;;;;;;;6.00;5.40;;;18.80;99.90;;;;;;10427534;28;20213;-81
2022/04/14 18:02:23;;;;;;;5.27;4.83;;;18.70;99.90;;;;;;10410878;28;20246;-81
2022/04/14 18:07:26;;;;;;;7.50;5.83;;;18.60;99.90;;;;;;10429811;28;20190;-80
2022/04/14 18:12:29;;;;;;;6.30;5.70;;;18.50;99.90;;;;;;10418648;28;20248;-81
2022/04/14 18:17:31;;;;;;;4.70;4.40;;;18.40;99.90;;;;;;10432484;28;20245;-81
2022/04/14 18:22:34;;;;;;;9.13;4.90;;;18.30;99.90;;;;;;10408749;28;20303;-80
2022/04/14 18:27:37;;;;;;;5.20;4.70;;;18.20;99.90;;;;;;10421102;28;20217;-79
2022/04/14 18:32:39;;;;;;;4.40;4.00;;;18.20;99.90;;;;;;10416879;28;20194;-80
2022/04/14 18:37:43;;;;;;;12.10;5.50;;;18.10;99.90;;;;;;10408755;28;20222;-79
2022/04/14 18:42:46;;;;;;;5.53;5.00;;;18.00;99.90;;;;;;10411815;28;20233;-79
2022/04/14 18:47:48;;;;;;;8.20;5.20;;;17.90;99.90;;;;;;10391336;28;20226;-79
2022/04/14 18:52:57;;;;;;;5.93;4.50;;;17.80;99.90;;;;;;10411837;28;20221;-81
2022/04/14 18:58:00;;;;;;;4.30;4.00;;;17.70;99.90;;;;;;10376461;28;20313;-78
2022/04/14 19:03:02;;;;;;;4.70;3.90;;;17.70;99.90;;;;;;10399530;28;20713;-80
2022/04/14 19:08:26;;;;;;;4.53;4.10;;;17.60;99.90;;;;;;10389497;28;20226;-80
2022/04/14 19:13:29;;;;;;;5.13;4.70;;;17.50;99.90;;;;;;10380615;28;20661;-82
2022/04/14 19:18:34;;;;;;;4.47;3.83;;;17.40;99.90;;;;;;10388511;28;20245;-81
2022/04/14 19:23:40;;;;;;;4.43;3.20;;;17.40;99.90;;;;;;10395604;28;20689;-79
2022/04/14 19:28:46;;;;;;;4.00;3.60;;;17.30;99.90;;;;;;10383385;28;20408;-81
2022/04/14 19:33:48;;;;;;;4.17;3.90;;;17.30;99.90;;;;;;10414287;28;20596;-79
2022/04/14 19:38:52;;;;;;;6.40;3.90;;;17.30;99.90;;;;;;10414108;28;20216;-79
2022/04/14 19:43:54;;;;;;;3.90;3.60;;;17.40;99.90;;;;;;10408432;28;20611;-81
2022/04/14 19:48:56;;;;;;;3.80;3.50;;;17.40;99.90;;;;;;10403311;28;20264;-79
2022/04/14 19:54:00;;;;;;;4.33;3.93;;;17.40;99.90;;;;;;10410219;28;20204;-79
2022/04/14 19:59:02;;;;;;;3.63;3.33;;;17.40;99.90;;;;;;10384613;28;20564;-79
2022/04/14 20:04:07;;;;;;;3.50;3.30;;;17.40;99.90;;;;;;10413799;28;20204;-79
2022/04/14 20:09:11;;;;;;;4.33;2.90;;;17.40;99.90;;;;;;10404101;28;20217;-79
2022/04/14 20:14:13;;;;;;;3.00;2.90;;;17.40;99.90;;;;;;10406281;28;20256;-79
2022/04/14 20:19:17;;;;;;;4.83;3.10;;;17.30;99.90;;;;;;10405449;28;20229;-79
2022/04/14 20:24:20;;;;;;;3.13;2.93;;;17.30;99.90;;;;;;10406515;28;20219;-79
2022/04/14 20:29:24;;;;;;;3.70;3.40;;;17.20;99.90;;;;;;10426091;28;20249;-80
2022/04/14 20:34:26;;;;;;;2.97;2.73;;;17.20;99.90;;;;;;10385743;28;20198;-81
2022/04/14 20:39:29;;;;;;;3.13;2.93;;;17.20;99.90;;;;;;10408534;28;20234;-79
2022/04/14 20:44:32;;;;;;;3.67;3.30;;;17.20;99.90;;;;;;10407521;28;20202;-79
2022/04/14 20:49:34;;;;;;;3.03;2.83;;;17.10;99.90;;;;;;10404924;28;20340;-81
2022/04/14 20:54:38;;;;;;;5.50;2.83;;;17.10;99.90;;;;;;10425689;28;20212;-79
2022/04/14 20:59:40;;;;;;;3.50;3.30;;;17.10;99.90;;;;;;10398318;28;20230;-79
2022/04/14 21:04:43;;;;;;;5.47;3.33;;;17.10;99.90;;;;;;10403099;28;20228;-81
2022/04/14 21:09:46;;;;;;;3.50;3.30;;;17.10;99.90;;;;;;10399527;28;20225;-79
2022/04/14 21:14:48;;;;;;;2.80;2.60;;;17.00;99.90;;;;;;10420865;28;20293;-81
2022/04/14 21:19:51;;;;;;;3.20;3.00;;;17.00;99.90;;;;;;10402133;28;20225;-80
2022/04/14 21:24:54;;;;;;;3.20;2.97;;;17.00;99.90;;;;;;10421140;28;20194;-81
2022/04/14 21:29:56;;;;;;;4.10;3.10;;;17.00;99.90;;;;;;10425072;28;20214;-82
2022/04/14 21:34:59;;;;;;;3.53;2.63;;;17.00;99.90;;;;;;10422180;28;20232;-81
2022/04/14 21:40:03;;;;;;;3.77;3.47;;;16.90;99.90;;;;;;10418609;28;20308;-81
2022/04/14 21:45:30;;;;;;;3.60;3.40;;;16.90;99.90;;;;;;10420530;28;20202;-81
2022/04/14 21:50:28;;;;;;;4.30;3.27;;;16.80;99.90;;;;;;10403643;28;20229;-81
2022/04/14 21:55:32;;;;;;;4.40;3.47;;;16.70;99.90;;;;;;10421486;28;20193;-81
2022/04/14 22:01:02;;;;;;;4.40;3.47;;;16.60;99.90;;;;;;10413732;22;20774;-84
2022/04/14 22:06:05;;;;;;;3.40;3.20;;;16.50;99.90;;;;;;10374579;28;20202;-84
2022/04/14 22:11:10;;;;;;;3.30;3.00;;;16.40;99.90;;;;;;10374356;28;20248;-84
2022/04/14 22:16:12;;;;;;;3.30;3.10;;;16.30;99.90;;;;;;10383671;28;20252;-85
2022/04/14 22:21:14;;;;;;;3.70;3.40;;;16.20;99.90;;;;;;10399987;28;20720;-84
2022/04/14 22:26:18;;;;;;;4.00;3.70;;;16.20;99.90;;;;;;10400410;28;20202;-87
2022/04/14 22:31:20;;;;;;;3.50;3.30;;;16.10;99.90;;;;;;10383243;28;20314;-85
2022/04/14 22:36:22;;;;;;;3.80;3.50;;;15.90;99.90;;;;;;10387798;28;20260;-84
2022/04/14 22:41:26;;;;;;;3.20;2.83;;;15.80;99.90;;;;;;10389930;28;20226;-85
2022/04/14 22:46:28;;;;;;;3.03;2.83;;;15.70;99.90;;;;;;10396624;28;20209;-84
2022/04/14 22:51:30;;;;;;;3.40;3.10;;;15.60;99.90;;;;;;10408959;28;20218;-84
2022/04/14 22:56:34;;;;;;;3.77;3.43;;;15.60;99.90;;;;;;10382499;28;20665;-84
2022/04/14 23:01:36;;;;;;;4.30;3.90;;;15.50;99.90;;;;;;10373835;28;20257;-85
2022/04/14 23:06:40;;;;;;;4.40;3.60;;;15.40;99.90;;;;;;10366363;28;20210;-86
2022/04/14 23:11:43;;;;;;;7.13;3.90;;;15.30;99.90;;;;;;10370970;28;20220;-83
2022/04/14 23:16:46;;;;;;;3.47;3.27;;;15.20;99.90;;;;;;10408196;28;20585;-84
2022/04/14 23:21:50;;;;;;;4.87;4.20;;;15.10;99.90;;;;;;10379539;28;20290;-84
2022/04/14 23:26:53;;;;;;;5.40;3.53;;;15.10;99.90;;;;;;10379494;28;20248;-83
2022/04/14 23:31:56;;;;;;;4.00;3.70;;;15.00;99.90;;;;;;10393436;28;20259;-83
2022/04/14 23:36:59;;;;;;;3.67;3.13;;;14.90;99.90;;;;;;10386767;28;20197;-84
2022/04/14 23:42:03;;;;;;;4.37;3.10;;;14.90;99.90;;;;;;10381152;28;20602;-83
2022/04/14 23:47:06;;;;;;;3.67;3.37;;;14.80;99.90;;;;;;10377703;28;20204;-84
2022/04/14 23:52:10;;;;;;;5.00;3.60;;;14.70;99.90;;;;;;10391869;28;20750;-84
2022/04/14 23:57:14;;;;;;;4.53;3.53;;;14.70;99.90;;;;;;10378063;28;20215;-85
